createdAt,value
2023-04-21T00:00:04.439Z,2.60
2023-04-21T00:02:39.797Z,2.90
2023-04-21T00:05:10.561Z,2.60
2023-04-21T00:07:41.810Z,2.90
2023-04-21T00:10:11.100Z,2.80
2023-04-21T00:12:39.292Z,2.40
2023-04-21T00:15:08.088Z,2.70
2023-04-21T00:17:36.725Z,2.80
2023-04-21T00:20:07.236Z,2.60
2023-04-21T00:22:35.538Z,2.80
2023-04-21T00:25:03.900Z,2.80
2023-04-21T00:27:32.335Z,3.00
2023-04-21T00:30:01.046Z,2.50
2023-04-21T00:32:29.606Z,2.80
2023-04-21T00:34:58.820Z,3.00
2023-04-21T00:37:27.106Z,3.30
2023-04-21T00:39:55.188Z,3.40
2023-04-21T00:42:23.334Z,3.30
2023-04-21T00:44:52.443Z,3.40
2023-04-21T00:47:20.626Z,3.70
2023-04-21T00:49:52.679Z,3.30
2023-04-21T00:52:20.870Z,3.30
2023-04-21T00:54:49.611Z,3.70
2023-04-21T00:57:17.826Z,3.20
2023-04-21T00:59:45.975Z,3.70
2023-04-21T01:02:16.295Z,4.00
2023-04-21T01:04:45.790Z,3.80
2023-04-21T01:07:14.684Z,3.50
2023-04-21T01:09:43.169Z,4.10
2023-04-21T01:12:11.712Z,3.60
2023-04-21T01:14:41.808Z,3.90
2023-04-21T01:17:12.281Z,4.10
2023-04-21T01:19:42.794Z,3.30
2023-04-21T01:22:12.860Z,3.80
2023-04-21T01:24:45.817Z,4.70
2023-04-21T01:27:15.333Z,4.10
2023-04-21T01:29:43.740Z,4.20
2023-04-21T01:32:13.772Z,4.40
2023-04-21T01:34:42.129Z,4.10
2023-04-21T01:37:12.765Z,4.30
2023-04-21T01:39:45.644Z,4.30
2023-04-21T01:42:13.828Z,5.60
2023-04-21T01:44:43.507Z,4.50
2023-04-21T01:47:11.714Z,5.30
2023-04-21T01:49:41.114Z,5.30
2023-04-21T01:52:09.226Z,6.30
2023-04-21T01:54:37.509Z,4.70
2023-04-21T01:57:06.995Z,4.30
2023-04-21T01:59:36.076Z,4.80
2023-04-21T02:02:04.725Z,5.40
2023-04-21T02:04:35.196Z,6.00
2023-04-21T02:07:03.616Z,5.80
2023-04-21T02:09:32.200Z,6.80
2023-04-21T02:12:00.522Z,7.60
2023-04-21T02:14:28.935Z,7.10
2023-04-21T02:16:57.564Z,7.70
2023-04-21T02:19:25.678Z,7.20
2023-04-21T02:21:56.019Z,7.20
2023-04-21T02:24:24.693Z,7.60
2023-04-21T02:26:54.232Z,6.60
2023-04-21T02:29:22.380Z,6.60
2023-04-21T02:32:00.719Z,6.40
2023-04-21T02:34:33.894Z,6.70
2023-04-21T02:37:03.028Z,6.70
2023-04-21T02:39:31.152Z,7.10
2023-04-21T02:41:59.709Z,6.10
2023-04-21T02:44:29.491Z,6.20
2023-04-21T02:46:57.824Z,5.80
2023-04-21T02:49:26.157Z,5.20
2023-04-21T02:51:55.325Z,4.60
2023-04-21T02:54:23.407Z,4.90
2023-04-21T02:56:51.620Z,4.00
2023-04-21T02:59:20.271Z,4.00
2023-04-21T03:01:49.382Z,3.60
2023-04-21T03:04:17.763Z,3.50
2023-04-21T03:06:46.169Z,3.20
2023-04-21T03:09:14.234Z,3.50
2023-04-21T03:11:42.389Z,3.50
2023-04-21T03:14:10.607Z,3.40
2023-04-21T03:16:39.045Z,3.30
2023-04-21T03:19:07.269Z,3.60
2023-04-21T03:21:38.549Z,3.10
2023-04-21T03:24:07.362Z,3.10
2023-04-21T03:26:36.416Z,3.40
2023-04-21T03:29:04.589Z,3.20
2023-04-21T03:31:32.775Z,3.60
2023-04-21T03:34:00.943Z,3.80
2023-04-21T03:36:29.296Z,3.50
2023-04-21T03:39:05.948Z,3.50
2023-04-21T03:41:41.843Z,3.70
2023-04-21T03:44:11.034Z,2.90
2023-04-21T03:46:41.128Z,3.10
2023-04-21T03:49:09.407Z,3.10
2023-04-21T03:51:38.008Z,3.40
2023-04-21T03:54:06.169Z,3.40
2023-04-21T03:56:35.918Z,3.50
2023-04-21T03:59:04.111Z,3.70
2023-04-21T04:01:33.663Z,3.40
2023-04-21T04:04:02.022Z,3.10
2023-04-21T04:06:30.626Z,3.20
2023-04-21T04:08:58.827Z,3.30
2023-04-21T04:11:26.965Z,2.60
2023-04-21T04:13:55.020Z,3.10
2023-04-21T04:16:23.338Z,2.80
2023-04-21T04:18:51.532Z,2.30
2023-04-21T04:21:19.792Z,2.30
2023-04-21T04:23:49.933Z,2.20
2023-04-21T04:26:18.961Z,2.20
2023-04-21T04:28:48.111Z,2.30
2023-04-21T04:31:17.343Z,2.50
2023-04-21T04:33:45.605Z,2.90
2023-04-21T04:36:13.747Z,3.30
2023-04-21T04:38:41.836Z,3.10
2023-04-21T04:41:09.920Z,3.70
2023-04-21T04:43:39.427Z,4.00
2023-04-21T04:46:09.549Z,4.00
2023-04-21T04:48:37.951Z,2.90
2023-04-21T04:51:06.176Z,3.50
2023-04-21T04:53:34.365Z,3.30
2023-04-21T04:56:02.725Z,3.10
2023-04-21T04:58:31.197Z,4.00
2023-04-21T05:01:17.540Z,3.50
2023-04-21T05:03:46.629Z,4.60
2023-04-21T05:06:15.061Z,4.20
2023-04-21T05:08:43.331Z,3.50
2023-04-21T05:11:11.547Z,3.50
2023-04-21T05:13:40.772Z,3.20
2023-04-21T05:16:10.324Z,2.80
2023-04-21T05:18:38.663Z,3.10
2023-04-21T05:21:07.577Z,3.90
2023-04-21T05:23:36.067Z,4.10
2023-04-21T05:26:04.901Z,4.30
2023-04-21T05:28:33.586Z,5.50
2023-04-21T05:31:01.705Z,4.90
2023-04-21T05:33:32.513Z,4.10
2023-04-21T05:36:00.668Z,4.20
2023-04-21T05:38:29.468Z,4.10
2023-04-21T05:40:57.806Z,3.90
2023-04-21T05:43:26.007Z,4.00
2023-04-21T05:45:54.606Z,3.90
2023-04-21T05:48:23.700Z,3.80
2023-04-21T05:50:51.880Z,3.30
2023-04-21T05:53:20.118Z,3.90
2023-04-21T05:55:48.442Z,3.60
2023-04-21T05:58:16.730Z,3.80
2023-04-21T06:00:47.932Z,4.00
2023-04-21T06:03:18.354Z,3.60
2023-04-21T06:05:56.377Z,3.70
2023-04-21T06:08:24.529Z,3.60
2023-04-21T06:10:55.406Z,3.70
2023-04-21T06:13:24.487Z,3.80
2023-04-21T06:15:53.305Z,3.60
2023-04-21T06:18:21.901Z,3.70
2023-04-21T06:20:52.087Z,3.90
2023-04-21T06:23:20.640Z,3.40
2023-04-21T06:26:09.612Z,4.20
2023-04-21T06:28:39.452Z,4.50
2023-04-21T06:31:18.326Z,4.80
2023-04-21T06:33:46.594Z,4.30
2023-04-21T06:36:16.188Z,4.70
2023-04-21T06:38:46.032Z,4.40
2023-04-21T06:41:14.285Z,3.60
2023-04-21T06:43:45.564Z,2.30
2023-04-21T06:46:14.700Z,3.10
2023-04-21T06:48:42.873Z,2.70
2023-04-21T06:51:11.168Z,2.80
2023-04-21T06:53:39.482Z,2.90
2023-04-21T06:56:07.816Z,2.70
2023-04-21T06:58:36.204Z,3.20
2023-04-21T07:01:04.909Z,3.10
2023-04-21T07:03:33.249Z,3.10
2023-04-21T07:06:01.586Z,3.60
2023-04-21T07:08:30.327Z,3.20
2023-04-21T07:10:59.014Z,3.40
2023-04-21T07:13:27.385Z,3.60
2023-04-21T07:15:55.522Z,3.60
2023-04-21T07:18:23.967Z,4.30
2023-04-21T07:20:52.552Z,3.20
2023-04-21T07:23:23.493Z,3.60
2023-04-21T07:25:54.774Z,3.90
2023-04-21T07:28:23.286Z,3.20
2023-04-21T07:30:51.683Z,3.30
2023-04-21T07:33:20.382Z,3.10
2023-04-21T07:35:48.807Z,3.90
2023-04-21T07:38:17.350Z,3.70
2023-04-21T07:40:46.628Z,4.00
2023-04-21T07:43:14.955Z,4.00
2023-04-21T07:45:43.775Z,3.20
2023-04-21T07:48:12.283Z,4.00
2023-04-21T07:50:41.751Z,3.80
2023-04-21T07:53:09.878Z,3.00
2023-04-21T07:55:38.258Z,2.90
2023-04-21T07:58:06.936Z,2.90
2023-04-21T08:00:35.313Z,3.10
2023-04-21T08:03:06.476Z,2.80
2023-04-21T08:05:38.848Z,2.80
2023-04-21T08:08:09.527Z,3.20
2023-04-21T08:10:37.842Z,2.80
2023-04-21T08:13:06.722Z,3.10
2023-04-21T08:15:35.160Z,2.50
2023-04-21T08:18:03.480Z,2.60
2023-04-21T08:20:32.621Z,2.20
2023-04-21T08:23:14.978Z,1.90
2023-04-21T08:25:59.081Z,2.50
2023-04-21T08:28:32.520Z,2.70
2023-04-21T08:31:02.506Z,2.90
2023-04-21T08:33:41.349Z,3.20
2023-04-21T08:38:54.967Z,1.80
2023-04-21T08:41:26.066Z,2.70
2023-04-21T08:43:54.292Z,2.70
2023-04-21T08:46:26.854Z,2.30
2023-04-21T08:48:57.185Z,2.70
2023-04-21T08:51:28.903Z,2.80
2023-04-21T08:53:57.838Z,3.20
2023-04-21T08:56:28.870Z,2.90
2023-04-21T08:58:57.132Z,3.00
2023-04-21T09:01:25.781Z,3.40
2023-04-21T09:03:54.729Z,2.90
2023-04-21T09:06:23.451Z,2.80
2023-04-21T09:08:57.972Z,2.60
2023-04-21T09:14:05.378Z,2.30
2023-04-21T09:16:35.368Z,5.10
2023-04-21T09:19:03.669Z,2.20
2023-04-21T09:21:32.490Z,2.70
2023-04-21T09:24:04.543Z,3.00
2023-04-21T09:26:37.182Z,2.90
2023-04-21T09:29:09.218Z,2.40
2023-04-21T09:31:41.406Z,3.00
2023-04-21T09:34:46.107Z,2.70
2023-04-21T09:37:18.971Z,2.60
2023-04-21T09:40:03.449Z,2.40
2023-04-21T09:42:39.264Z,2.30
2023-04-21T09:47:43.998Z,3.30
2023-04-21T09:50:13.277Z,2.50
2023-04-21T09:52:42.026Z,2.70
2023-04-21T09:55:13.835Z,2.50
2023-04-21T09:57:43.284Z,2.70
2023-04-21T10:00:12.774Z,3.00
2023-04-21T10:02:45.386Z,2.00
2023-04-21T10:05:13.856Z,2.20
2023-04-21T10:07:42.505Z,2.50
2023-04-21T10:10:21.843Z,2.80
2023-04-21T10:12:51.375Z,2.10
2023-04-21T10:15:36.655Z,2.80
2023-04-21T10:18:18.680Z,3.70
2023-04-21T10:21:09.537Z,2.20
2023-04-21T10:23:54.612Z,1.90
2023-04-21T10:26:35.377Z,2.00
2023-04-21T10:29:07.140Z,1.90
2023-04-21T10:31:57.228Z,2.10
2023-04-21T10:34:25.773Z,1.80
2023-04-21T10:36:56.611Z,1.80
2023-04-21T10:39:40.793Z,2.70
2023-04-21T10:42:24.750Z,1.80
2023-04-21T10:44:58.998Z,2.00
2023-04-21T10:47:31.729Z,1.60
2023-04-21T10:50:03.262Z,1.50
2023-04-21T10:52:36.158Z,2.30
2023-04-21T10:55:10.972Z,3.80
2023-04-21T10:57:42.367Z,2.10
2023-04-21T11:00:12.465Z,1.70
2023-04-21T11:02:43.402Z,3.20
2023-04-21T11:05:24.164Z,2.20
2023-04-21T11:08:03.494Z,1.60
2023-04-21T11:10:49.590Z,2.10
2023-04-21T11:13:21.688Z,1.60
2023-04-21T11:16:05.444Z,1.60
2023-04-21T11:18:38.700Z,2.30
2023-04-21T11:21:11.654Z,2.10
2023-04-21T11:23:48.441Z,2.20
2023-04-21T11:26:17.297Z,2.20
2023-04-21T11:28:48.499Z,2.60
2023-04-21T11:31:16.813Z,2.30
2023-04-21T11:33:45.370Z,1.60
2023-04-21T11:36:14.544Z,2.00
2023-04-21T11:38:43.109Z,2.20
2023-04-21T11:41:11.562Z,1.70
2023-04-21T11:43:40.055Z,2.40
2023-04-21T11:46:33.653Z,1.70
2023-04-21T11:49:26.029Z,2.30
2023-04-21T11:52:07.596Z,2.20
2023-04-21T11:54:44.128Z,1.80
2023-04-21T11:57:19.568Z,2.00
2023-04-21T11:59:48.115Z,2.00
2023-04-21T12:02:23.694Z,2.00
2023-04-21T12:05:12.001Z,1.70
2023-04-21T12:07:44.684Z,2.70
2023-04-21T12:10:22.633Z,2.40
2023-04-21T12:12:57.713Z,2.10
2023-04-21T12:15:26.174Z,2.30
2023-04-21T12:17:54.462Z,1.70
2023-04-21T12:20:28.966Z,1.70
2023-04-21T12:23:00.354Z,2.00
2023-04-21T12:25:30.533Z,1.80
2023-04-21T12:28:02.629Z,2.00
2023-04-21T12:30:31.251Z,1.70
2023-04-21T12:33:06.390Z,2.00
2023-04-21T12:35:35.750Z,1.80
2023-04-21T12:38:04.033Z,1.80
2023-04-21T12:40:32.871Z,2.00
2023-04-21T12:43:01.340Z,1.90
2023-04-21T12:45:29.841Z,2.20
2023-04-21T12:47:58.412Z,1.80
2023-04-21T12:50:26.635Z,1.70
2023-04-21T12:52:56.114Z,1.80
2023-04-21T12:55:24.280Z,2.00
2023-04-21T12:57:55.364Z,2.00
2023-04-21T13:00:23.604Z,1.80
2023-04-21T13:02:52.007Z,1.80
2023-04-21T13:05:20.417Z,1.90
2023-04-21T13:07:49.423Z,1.80
2023-04-21T13:10:18.104Z,1.90
2023-04-21T13:12:46.248Z,1.90
2023-04-21T13:15:14.483Z,2.10
2023-04-21T13:17:42.751Z,2.00
2023-04-21T13:20:12.015Z,2.00
2023-04-21T13:22:41.298Z,1.60
2023-04-21T13:25:09.941Z,2.10
2023-04-21T13:27:40.080Z,2.20
2023-04-21T13:30:11.111Z,2.30
2023-04-21T13:32:39.993Z,2.60
2023-04-21T13:35:10.825Z,2.50
2023-04-21T13:37:40.605Z,2.40
2023-04-21T13:40:10.812Z,2.70
2023-04-21T13:42:39.649Z,2.20
2023-04-21T13:45:11.081Z,2.80
2023-04-21T13:47:40.826Z,2.00
2023-04-21T13:50:09.673Z,2.40
2023-04-21T13:52:37.956Z,2.30
2023-04-21T13:55:06.630Z,2.10
2023-04-21T13:57:34.863Z,2.10
2023-04-21T14:00:06.735Z,2.40
2023-04-21T14:02:36.235Z,2.70
2023-04-21T14:05:06.420Z,2.50
2023-04-21T14:07:37.740Z,3.00
2023-04-21T14:10:06.957Z,2.50
2023-04-21T14:12:35.327Z,2.20
2023-04-21T14:15:05.915Z,3.20
2023-04-21T14:17:34.286Z,2.50
2023-04-21T14:20:02.698Z,2.30
2023-04-21T14:22:31.379Z,2.70
2023-04-21T14:24:59.809Z,2.80
2023-04-21T14:27:28.476Z,2.70
2023-04-21T14:29:59.489Z,2.90
2023-04-21T14:32:27.751Z,3.40
2023-04-21T14:34:58.797Z,2.50
2023-04-21T14:37:27.121Z,2.40
2023-04-21T14:39:55.437Z,2.40
2023-04-21T14:42:23.572Z,2.70
2023-04-21T14:44:51.733Z,2.20
2023-04-21T14:47:20.367Z,2.70
2023-04-21T14:49:55.150Z,2.70
2023-04-21T14:52:27.453Z,2.50
2023-04-21T14:54:55.536Z,4.50
2023-04-21T14:57:24.209Z,2.70
2023-04-21T14:59:52.532Z,2.60
2023-04-21T15:02:21.613Z,2.80
2023-04-21T15:04:50.727Z,2.90
2023-04-21T15:07:23.775Z,2.20
2023-04-21T15:09:53.424Z,2.40
2023-04-21T15:12:22.394Z,2.20
2023-04-21T15:14:50.974Z,2.00
2023-04-21T15:17:19.243Z,2.30
2023-04-21T15:19:47.599Z,3.00
2023-04-21T15:22:16.316Z,2.80
2023-04-21T15:24:44.545Z,3.40
2023-04-21T15:27:12.710Z,3.00
2023-04-21T15:29:41.135Z,3.00
2023-04-21T15:32:09.837Z,3.40
2023-04-21T15:34:38.270Z,3.40
2023-04-21T15:37:06.488Z,2.80
2023-04-21T15:39:34.933Z,2.50
2023-04-21T15:42:04.638Z,2.90
2023-04-21T15:44:34.404Z,2.10
2023-04-21T15:47:03.566Z,2.90
2023-04-21T15:49:31.924Z,2.20
2023-04-21T15:52:00.237Z,2.40
2023-04-21T15:54:28.665Z,2.70
2023-04-21T15:56:57.844Z,2.00
2023-04-21T15:59:26.403Z,2.40
2023-04-21T16:01:57.214Z,1.90
2023-04-21T16:04:25.622Z,2.10
2023-04-21T16:06:54.170Z,2.50
2023-04-21T16:09:22.663Z,2.60
2023-04-21T16:11:50.893Z,2.30
2023-04-21T16:14:19.555Z,2.30
2023-04-21T16:16:47.720Z,1.70
2023-04-21T16:19:16.529Z,2.20
2023-04-21T16:21:45.049Z,1.90
2023-04-21T16:24:13.681Z,2.10
2023-04-21T16:26:42.114Z,1.90
2023-04-21T16:29:10.570Z,1.70
2023-04-21T16:31:38.853Z,1.70
2023-04-21T16:34:07.033Z,2.10
2023-04-21T16:36:35.534Z,2.10
2023-04-21T16:39:03.868Z,2.00
2023-04-21T16:41:32.630Z,2.50
2023-04-21T16:44:00.899Z,2.10
2023-04-21T16:46:29.691Z,3.50
2023-04-21T16:48:58.026Z,3.10
2023-04-21T16:51:28.711Z,2.90
2023-04-21T16:53:57.136Z,2.80
2023-04-21T16:56:25.226Z,2.30
2023-04-21T16:58:54.311Z,2.70
2023-04-21T17:01:22.783Z,1.90
2023-04-21T17:03:51.174Z,2.20
2023-04-21T17:06:21.471Z,1.90
2023-04-21T17:08:49.880Z,1.50
2023-04-21T17:11:18.054Z,2.20
2023-04-21T17:13:46.279Z,1.80
2023-04-21T17:16:14.453Z,1.50
2023-04-21T17:18:42.729Z,2.40
2023-04-21T17:21:11.630Z,3.10
2023-04-21T17:23:39.891Z,3.90
2023-04-21T17:26:10.709Z,4.50
2023-04-21T17:28:41.113Z,4.40
2023-04-21T17:31:15.930Z,3.60
2023-04-21T17:33:45.219Z,3.40
2023-04-21T17:36:13.473Z,2.90
2023-04-21T17:38:43.086Z,2.60
2023-04-21T17:41:11.778Z,2.40
2023-04-21T17:43:40.137Z,2.70
2023-04-21T17:46:08.586Z,1.80
2023-04-21T17:48:36.821Z,1.90
2023-04-21T17:51:05.016Z,1.70
2023-04-21T17:53:33.416Z,2.10
2023-04-21T17:56:01.738Z,2.20
2023-04-21T17:58:30.565Z,1.50
2023-04-21T18:00:59.528Z,1.50
2023-04-21T18:03:28.520Z,1.30
2023-04-21T18:05:57.142Z,1.70
2023-04-21T18:08:25.768Z,1.90
2023-04-21T18:10:55.090Z,1.30
2023-04-21T18:13:23.315Z,1.60
2023-04-21T18:15:51.637Z,1.00
2023-04-21T18:18:20.069Z,1.40
2023-04-21T18:20:48.566Z,1.50
2023-04-21T18:23:16.835Z,1.10
2023-04-21T18:25:45.148Z,1.20
2023-04-21T18:28:13.523Z,1.50
2023-04-21T18:30:42.331Z,1.30
2023-04-21T18:33:11.871Z,1.30
2023-04-21T18:35:41.393Z,1.00
2023-04-21T18:38:11.972Z,1.10
2023-04-21T18:40:41.137Z,1.30
2023-04-21T18:43:12.382Z,1.10
2023-04-21T18:45:40.642Z,1.20
2023-04-21T18:48:09.066Z,1.30
2023-04-21T18:50:40.957Z,1.10
2023-04-21T18:53:09.435Z,1.30
2023-04-21T18:55:37.915Z,1.30
2023-04-21T18:58:07.227Z,1.10
2023-04-21T19:00:39.297Z,1.20
2023-04-21T19:03:07.874Z,1.20
2023-04-21T19:05:37.002Z,1.00
2023-04-21T19:08:06.102Z,1.20
2023-04-21T19:10:35.862Z,1.00
2023-04-21T19:13:04.590Z,1.00
2023-04-21T19:15:33.000Z,1.00
2023-04-21T19:18:01.347Z,1.50
2023-04-21T19:20:30.103Z,1.20
2023-04-21T19:22:58.449Z,1.40
2023-04-21T19:25:26.713Z,1.50
2023-04-21T19:27:55.108Z,1.10
2023-04-21T19:30:23.444Z,1.20
2023-04-21T19:32:52.089Z,1.30
2023-04-21T19:35:21.336Z,1.20
2023-04-21T19:37:49.787Z,1.20
2023-04-21T19:40:19.056Z,1.30
2023-04-21T19:42:47.554Z,1.30
2023-04-21T19:45:16.903Z,1.70
2023-04-21T19:47:45.836Z,1.60
2023-04-21T19:50:14.087Z,1.40
2023-04-21T19:52:42.303Z,1.70
2023-04-21T19:55:10.684Z,1.30
2023-04-21T19:57:39.094Z,1.60
2023-04-21T20:00:11.491Z,1.20
2023-04-21T20:02:43.809Z,1.50
2023-04-21T20:05:12.314Z,1.30
2023-04-21T20:07:40.823Z,1.70
2023-04-21T20:10:09.696Z,1.40
2023-04-21T20:12:38.346Z,2.10
2023-04-21T20:15:07.292Z,1.90
2023-04-21T20:17:37.117Z,1.80
2023-04-21T20:20:07.012Z,2.20
2023-04-21T20:22:36.058Z,2.30
2023-04-21T20:25:04.993Z,2.60
2023-04-21T20:27:33.965Z,2.90
2023-04-21T20:30:02.060Z,3.30
2023-04-21T20:32:30.504Z,3.60
2023-04-21T20:34:59.785Z,3.40
2023-04-21T20:37:28.629Z,3.70
2023-04-21T20:39:57.241Z,4.00
2023-04-21T20:42:26.021Z,2.90
2023-04-21T20:44:54.748Z,3.50
2023-04-21T20:47:22.840Z,3.90
2023-04-21T20:49:51.291Z,4.10
2023-04-21T20:52:19.500Z,3.70
2023-04-21T20:54:47.612Z,4.10
2023-04-21T20:57:15.881Z,3.50
2023-04-21T20:59:44.368Z,3.90
2023-04-21T21:02:12.660Z,3.90
2023-04-21T21:04:41.232Z,4.30
2023-04-21T21:07:09.387Z,3.90
2023-04-21T21:09:38.011Z,4.10
2023-04-21T21:12:06.697Z,3.70
2023-04-21T21:14:34.976Z,3.10
2023-04-21T21:17:03.378Z,4.10
2023-04-21T21:19:32.590Z,3.10
2023-04-21T21:22:00.901Z,3.10
2023-04-21T21:24:29.309Z,2.80
2023-04-21T21:26:58.336Z,2.60
2023-04-21T21:29:26.660Z,2.80
2023-04-21T21:31:54.814Z,2.80
2023-04-21T21:34:22.973Z,2.90
2023-04-21T21:36:51.104Z,2.70
2023-04-21T21:39:19.366Z,2.80
2023-04-21T21:41:47.952Z,3.10
2023-04-21T21:44:16.068Z,2.60
2023-04-21T21:46:44.221Z,2.30
2023-04-21T21:49:12.419Z,2.70
2023-04-21T21:51:40.894Z,2.80
2023-04-21T21:54:08.997Z,2.80
2023-04-21T21:56:37.203Z,3.60
2023-04-21T21:59:05.838Z,3.50
2023-04-21T22:01:34.083Z,3.70
2023-04-21T22:04:02.373Z,3.90
2023-04-21T22:06:35.994Z,4.00
2023-04-21T22:09:05.170Z,3.90
2023-04-21T22:11:33.725Z,3.90
2023-04-21T22:14:14.539Z,4.00
2023-04-21T22:16:50.774Z,3.80
2023-04-21T22:19:19.192Z,3.30
2023-04-21T22:21:47.469Z,4.00
2023-04-21T22:24:15.657Z,4.20
2023-04-21T22:26:44.037Z,3.80
2023-04-21T22:29:12.200Z,4.40
2023-04-21T22:31:40.624Z,4.10
2023-04-21T22:34:08.764Z,4.30
2023-04-21T22:36:37.307Z,3.90
2023-04-21T22:39:05.487Z,3.60
2023-04-21T22:41:33.705Z,4.00
2023-04-21T22:44:01.840Z,4.00
2023-04-21T22:46:33.796Z,4.20
2023-04-21T22:49:03.382Z,3.90
2023-04-21T22:51:32.751Z,3.90
2023-04-21T22:54:01.066Z,4.60
2023-04-21T22:56:32.309Z,4.50
2023-04-21T22:59:00.604Z,4.30
2023-04-21T23:01:29.381Z,3.40
2023-04-21T23:03:57.635Z,3.70
2023-04-21T23:06:26.663Z,3.90
2023-04-21T23:08:54.767Z,4.10
2023-04-21T23:11:22.860Z,4.20
2023-04-21T23:13:51.131Z,4.30
2023-04-21T23:16:19.388Z,4.30
2023-04-21T23:18:47.737Z,3.70
2023-04-21T23:21:16.653Z,4.40
2023-04-21T23:23:44.754Z,3.90
2023-04-21T23:26:12.796Z,4.10
2023-04-21T23:28:40.928Z,3.80
2023-04-21T23:31:09.332Z,3.80
2023-04-21T23:33:37.510Z,4.60
2023-04-21T23:36:06.216Z,3.80
2023-04-21T23:38:34.499Z,4.00
2023-04-21T23:41:03.165Z,3.40
2023-04-21T23:43:34.663Z,3.00
2023-04-21T23:46:03.519Z,3.30
2023-04-21T23:48:32.362Z,3.20
2023-04-21T23:51:00.820Z,3.70
2023-04-21T23:53:29.453Z,3.30
2023-04-21T23:55:57.576Z,3.80
2023-04-21T23:58:25.847Z,3.40
